Quincy, IL

2:09 PM CDT on June 03, 2015 (GMT -0500)
Adams County Emergency Management | | Change Station
CLOSE
Current Station
Personal Weather Station
Location: Quincy, IL
Elevation: 725 ft
Nearby Weather Stations

Elev 725 ft 39.93 °N, 91.33 °W | Updated 4 seconds ago

Overcast
Overcast
71.2 °F
Feels Like 73 °F
N
4.0
Wind Variable Wind from SSE
Gusts 10.0 mph

Today
High -- | Low -- °F
--% Chance of Precip.
Yesterday
High -- | Low -- °F
Precip. -- in
5:38 AM 8:29 PM
Full, 99% visible
Pressure 29.99 in
Visibility 10.0 miles
Clouds Few 1900 ft
Scattered Clouds 2400 ft
Overcast 3400 ft
Heat Index 73 °F
Dew Point 63 °F
Humidity 75%
Rainfall 0.00 in
Snow Depth Not available.
UV 3 out of 12
Pollen 7.70 out of 12
Air Quality Not available.
Flu Activity Sporadic
SPECI KUIN 031904Z AUTO 17009KT 10SM FEW019 SCT024 OVC034 21/16 A2999 RMK AO2 T02060156 TSNO

More Conditions Fewer Conditions

Pressure 29.99 in
Visibility 10.0 miles
Clouds Few 1900 ft
Scattered Clouds 2400 ft
Overcast 3400 ft
Heat Index 73 °F
Dew Point 63 °F
Humidity 75%
Rainfall 0.00 in
Snow Depth Not available.
UV 3 out of 12
Pollen 7.70 out of 12
Air Quality Not available.
Flu Activity Sporadic
SPECI KUIN 031904Z AUTO 17009KT 10SM FEW019 SCT024 OVC034 21/16 A2999 RMK AO2 T02060156 TSNO

More Conditions Fewer Conditions

10-Day Weather Forecast

×

Almanac

Astronomy

Jun. 03, 2015 Rise Set
Actual Time
Civil Twilight
Nautical Twilight
Astronomical Twilight
Moon
Length of Visible Light
Length of Day
Tomorrow will be .
, % of the Moon is Illuminated

Today's Extremes

State Highs State Lows

Community

WunderPhotos

Upload Photos

1,826,270 photos uploaded!

WunderBlogs® & News

Nearby

Air Quality

  Air Quality AQ Index Pollutant
Not available.

Snow Depth

Station Depth Elevation

Earthquake Activity

City Distance Mag. Time & Date
Minimum magnitude displayed is 2.5.

Coastal Water Temperatures

Place Temperature

Stations

Nearby Weather Stations

Station Location Temp. Windchill Dew Point Humidity Wind Precip. Elev Updated Type